Time;durP1;ratioP1;P1;durP2;ratioP2;P2;SDS_P1;SDS_P2;PMS_P1;PMS_P2;Temp;Humidity;BMP_temperature;BMP_pressure;BME280_temperature;BME280_humidity;BME280_pressure;Samples;Min_cycle;Max_cycle;Signal;HPM_P1;HPM_P2
2022/11/07 00:02:05;;;;;;;30.65;16.42;;;;;;;21.34;62.17;98959.53;4798304;29;20623;-61
2022/11/07 00:04:47;;;;;;;28.67;17.17;;;;;;;21.29;62.27;98968.56;4799957;29;20100;-61
2022/11/07 00:07:36;;;;;;;30.58;17.73;;;;;;;21.06;62.84;98978.19;4804569;29;20377;-61
2022/11/07 00:10:25;;;;;;;31.63;17.35;;;;;;;21.31;62.39;98986.28;4779315;29;20063;-61
2022/11/07 00:13:14;;;;;;;34.25;18.02;;;;;;;21.41;62.49;99001.00;4783459;29;20362;-61
2022/11/07 00:16:10;;;;;;;30.02;17.45;;;;;;;21.58;61.88;99014.38;4797425;29;20578;-62
2022/11/07 00:18:53;;;;;;;35.83;18.23;;;;;;;21.41;61.90;99020.13;4798047;29;20066;-62
2022/11/07 00:21:42;;;;;;;28.35;15.95;;;;;;;21.19;62.63;99031.38;4796067;29;20058;-61
2022/11/07 00:24:25;;;;;;;31.48;17.70;;;;;;;21.42;62.22;99032.66;4796872;29;20141;-61
2022/11/07 00:27:20;;;;;;;31.58;17.15;;;;;;;21.23;62.51;99032.47;4791423;29;20326;-62
2022/11/07 00:29:55;;;;;;;34.03;18.50;;;;;;;21.11;62.94;99038.19;4797803;29;20050;-62
2022/11/07 00:32:46;;;;;;;36.38;17.92;;;;;;;21.19;62.51;99034.94;4778415;29;20144;-63
2022/11/07 00:35:40;;;;;;;35.15;18.52;;;;;;;21.23;62.84;99036.00;4771202;29;20109;-59
2022/11/07 00:38:23;;;;;;;36.67;18.20;;;;;;;21.22;62.18;99028.91;4781170;29;20054;-61
2022/11/07 00:41:13;;;;;;;29.42;15.45;;;;;;;21.48;64.70;99026.97;4796312;29;20051;-62
2022/11/07 00:43:55;;;;;;;36.67;19.87;;;;;;;21.39;61.78;99020.41;4796138;29;20127;-61
2022/11/07 00:46:44;;;;;;;36.15;19.85;;;;;;;20.98;63.27;99034.16;4792480;29;20106;-61
2022/11/07 00:49:26;;;;;;;31.38;18.70;;;;;;;21.60;63.26;99029.38;4794410;29;20054;-60
2022/11/07 00:52:15;;;;;;;33.72;18.85;;;;;;;21.50;63.26;99029.41;4793334;29;20127;-61
2022/11/07 00:54:57;;;;;;;34.28;18.40;;;;;;;21.49;61.86;99025.03;4794470;29;20677;-60
2022/11/07 00:57:46;;;;;;;31.85;17.67;;;;;;;21.47;62.94;99030.78;4791319;29;20062;-61
2022/11/07 01:00:36;;;;;;;24.92;14.75;;;;;;;21.07;62.92;99032.47;4795497;29;20146;-58
2022/11/07 01:06:27;;;;;;;19.50;11.70;;;;;;;21.83;65.64;99040.75;4792650;29;20090;-60
2022/11/07 01:09:20;;;;;;;26.40;12.38;;;;;;;22.75;65.52;99064.00;4791622;29;20054;-60
2022/11/07 01:12:02;;;;;;;19.17;11.02;;;;;;;22.22;59.80;99072.81;4796127;29;20074;-64
2022/11/07 01:14:52;;;;;;;17.45;9.75;;;;;;;21.57;60.76;99081.84;4795270;29;20055;-63
2022/11/07 01:17:34;;;;;;;16.45;9.43;;;;;;;21.31;62.77;99075.56;4795791;29;20059;-63
2022/11/07 01:20:23;;;;;;;20.25;9.65;;;;;;;21.50;62.58;99079.38;4795839;29;20140;-63
2022/11/07 01:23:05;;;;;;;29.83;10.65;;;;;;;22.51;64.38;99086.63;4796729;29;20058;-62
2022/11/07 01:25:55;;;;;;;20.48;9.40;;;;;;;22.00;62.81;99073.19;4800366;29;20094;-63
2022/11/07 01:28:37;;;;;;;35.95;11.25;;;;;;;22.35;64.81;99068.66;4800143;29;20070;-59
2022/11/07 01:31:30;;;;;;;19.98;10.45;;;;;;;22.99;60.86;99064.91;4800423;29;20721;-61
2022/11/07 01:34:12;;;;;;;22.98;10.50;;;;;;;22.65;62.58;99054.78;4790754;29;20054;-59
2022/11/07 01:37:01;;;;;;;17.08;9.45;;;;;;;22.84;62.69;99062.31;4799126;29;20153;-60
2022/11/07 01:39:43;;;;;;;19.05;9.60;;;;;;;23.87;61.07;99047.59;4795634;29;20443;-60
2022/11/07 01:42:32;;;;;;;15.23;10.40;;;;;;;23.93;58.68;99054.66;4817237;29;20154;-59
2022/11/07 01:45:22;;;;;;;21.67;9.73;;;;;;;24.41;58.31;99065.50;4817468;29;20070;-57
2022/11/07 01:48:11;;;;;;;18.85;10.52;;;;;;;24.34;58.00;99065.88;4805524;29;20512;-59
2022/11/07 01:50:53;;;;;;;17.95;9.23;;;;;;;24.64;57.49;99069.28;4800758;29;20059;-60
2022/11/07 01:53:44;;;;;;;16.35;9.32;;;;;;;24.77;57.07;99073.22;4799518;29;20047;-59
2022/11/07 01:56:30;;;;;;;17.52;9.55;;;;;;;24.94;56.19;99072.69;4800108;29;20046;-58
2022/11/07 01:59:25;;;;;;;21.47;9.03;;;;;;;24.98;55.18;99081.94;4797915;29;20074;-60
2022/11/07 02:02:09;;;;;;;17.60;8.55;;;;;;;24.52;54.25;99086.22;4799888;29;20352;-58
2022/11/07 02:05:00;;;;;;;15.70;9.50;;;;;;;24.52;53.54;99083.47;4799888;29;20078;-59
2022/11/07 02:07:42;;;;;;;19.55;10.15;;;;;;;24.33;56.88;99085.38;4799568;29;20116;-60
2022/11/07 02:10:33;;;;;;;18.27;9.15;;;;;;;24.56;55.02;99083.69;4799601;29;20055;-59
2022/11/07 02:13:24;;;;;;;16.27;8.77;;;;;;;24.59;55.33;99094.91;4798880;29;20055;-61
2022/11/07 02:16:15;;;;;;;18.27;9.95;;;;;;;24.62;54.92;99094.28;4799580;29;20512;-59
2022/11/07 02:18:58;;;;;;;24.88;12.13;;;;;;;24.16;52.76;99097.66;4799111;29;20472;-58
2022/11/07 02:22:02;;;;;;;23.75;11.73;;;;;;;24.14;55.70;99099.88;4798986;29;20533;-58
2022/11/07 02:24:46;;;;;;;17.20;8.77;;;;;;;24.97;54.85;99102.25;4798456;29;20146;-58
2022/11/07 02:27:44;;;;;;;29.67;11.60;;;;;;;23.66;55.24;99113.59;4799137;29;20065;-59
2022/11/07 02:30:23;;;;;;;18.60;9.75;;;;;;;24.47;55.82;99105.47;4797721;29;20065;-58
2022/11/07 02:33:21;;;;;;;19.67;10.18;;;;;;;24.75;52.88;99103.72;4797340;29;20066;-59
2022/11/07 02:36:11;;;;;;;19.23;9.95;;;;;;;25.15;53.62;99101.41;4797028;29;20055;-59
2022/11/07 02:38:57;;;;;;;18.63;10.48;;;;;;;25.41;52.77;99103.72;4800510;29;20086;-60
2022/11/07 02:41:46;;;;;;;26.92;11.27;;;;;;;25.59;52.81;99119.34;4802927;29;20059;-59
2022/11/07 02:44:29;;;;;;;24.63;11.75;;;;;;;25.63;53.27;99121.47;4799064;29;20065;-59
2022/11/07 02:47:18;;;;;;;23.83;13.52;;;;;;;24.84;54.47;99127.72;4798555;29;20046;-59
2022/11/07 02:50:00;;;;;;;20.55;12.18;;;;;;;25.12;51.34;99132.22;4798517;29;20062;-60
2022/11/07 02:52:50;;;;;;;24.77;12.63;;;;;;;25.34;52.27;99145.34;4780524;30;20047;-59
2022/11/07 02:55:32;;;;;;;38.65;16.92;;;;;;;24.52;52.81;99148.53;4781330;29;20055;-58
2022/11/07 02:58:22;;;;;;;36.75;17.15;;;;;;;23.49;55.00;99159.78;4797698;29;20119;-61
2022/11/07 03:01:08;;;;;;;34.72;17.00;;;;;;;23.63;56.30;99161.53;4799011;29;20047;-59
2022/11/07 03:03:57;;;;;;;38.63;17.63;;;;;;;23.25;56.25;99169.59;4765030;30;20049;-59
2022/11/07 03:06:54;;;;;;;36.45;18.33;;;;;;;22.84;56.57;99169.03;4780400;30;20059;-59
2022/11/07 03:09:29;;;;;;;40.70;18.65;;;;;;;22.70;57.12;99171.59;4797995;29;20054;-59
2022/11/07 03:12:19;;;;;;;27.13;13.90;;;;;;;23.57;58.90;99181.88;4797904;29;20175;-59
2022/11/07 03:15:02;;;;;;;36.35;17.73;;;;;;;23.98;54.89;99184.25;4779870;29;20332;-59
2022/11/07 03:17:51;;;;;;;29.58;15.00;;;;;;;23.87;57.99;99190.13;4798145;29;20061;-59
2022/11/07 03:20:40;;;;;;;24.67;13.23;;;;;;;24.85;54.25;99179.59;4798211;29;20511;-60
2022/11/07 03:23:29;;;;;;;24.42;13.20;;;;;;;25.07;55.36;99183.66;4800145;29;20058;-59
2022/11/07 03:26:18;;;;;;;23.75;13.55;;;;;;;25.25;54.82;99190.28;4797529;29;20058;-57
2022/11/07 03:29:15;;;;;;;27.02;14.05;;;;;;;25.14;55.29;99190.41;4798397;29;20051;-58
2022/11/07 03:31:50;;;;;;;27.40;14.80;;;;;;;25.58;54.43;99191.94;4798827;29;20115;-59
2022/11/07 03:34:41;;;;;;;29.08;15.63;;;;;;;24.98;53.48;99208.25;4791181;29;20062;-59
2022/11/07 03:37:30;;;;;;;25.98;14.48;;;;;;;25.73;51.11;99209.25;4797171;29;20478;-61
2022/11/07 03:40:19;;;;;;;28.00;14.05;;;;;;;25.63;52.77;99210.25;4796453;29;20826;-60
2022/11/07 03:43:01;;;;;;;31.25;14.55;;;;;;;25.70;52.63;99207.09;4798366;29;20050;-58
2022/11/07 03:45:50;;;;;;;30.05;13.93;;;;;;;25.35;54.45;99210.16;4797252;29;20701;-62
2022/11/07 03:48:39;;;;;;;35.20;16.83;;;;;;;25.74;51.11;99219.94;4793012;29;20055;-58
2022/11/07 03:51:35;;;;;;;31.17;16.70;;;;;;;25.52;51.55;99220.59;4797053;29;20054;-60
2022/11/07 03:54:11;;;;;;;38.28;20.15;;;;;;;25.62;51.42;99194.84;4795964;29;20119;-57
2022/11/07 03:57:00;;;;;;;27.80;15.37;;;;;;;26.18;52.13;99213.09;4797511;29;20054;-60
2022/11/07 03:59:49;;;;;;;40.17;18.20;;;;;;;26.24;50.71;99229.53;4797373;29;20051;-60
2022/11/07 04:02:31;;;;;;;32.33;18.42;;;;;;;25.15;51.66;99241.47;4797863;29;20130;-59
2022/11/07 04:05:21;;;;;;;39.30;17.80;;;;;;;25.10;52.28;99244.28;4791288;29;20042;-60
2022/11/07 04:08:10;;;;;;;33.40;15.75;;;;;;;25.51;53.44;99251.13;4796713;29;20054;-60
2022/11/07 04:10:59;;;;;;;41.35;17.60;;;;;;;25.62;52.03;99251.78;4797413;29;20055;-60
2022/11/07 04:20:03;;;;;;;30.33;16.17;;;;;;;25.98;51.65;99233.53;4798166;29;20341;-58
2022/11/07 04:22:38;;;;;;;30.23;15.20;;;;;;;26.28;50.97;99242.34;4797685;29;20063;-59
2022/11/07 04:28:35;;;;;;;30.83;15.10;;;;;;;27.13;47.96;99259.31;4799560;29;20119;-60
2022/11/07 04:31:37;;;;;;;27.85;14.13;;;;;;;26.85;47.63;99263.25;4797747;29;20054;-61
2022/11/07 04:34:19;;;;;;;22.73;13.52;;;;;;;26.98;48.06;99259.66;4798064;29;20537;-60
2022/11/07 04:37:08;;;;;;;24.20;13.95;;;;;;;27.54;48.06;99255.59;4798230;29;20082;-60
2022/11/07 04:39:50;;;;;;;22.60;12.77;;;;;;;27.19;47.19;99260.00;4781854;29;20062;-60
2022/11/07 04:42:39;;;;;;;24.08;13.80;;;;;;;27.38;47.88;99254.38;4796863;29;20058;-60
2022/11/07 04:45:34;;;;;;;34.25;15.65;;;;;;;26.52;48.64;99263.34;4797460;29;20082;-59
2022/11/07 04:48:11;;;;;;;26.05;13.75;;;;;;;26.48;50.01;99257.66;4796743;29;20115;-61
2022/11/07 04:51:06;;;;;;;33.65;17.08;;;;;;;26.83;49.32;99266.31;4797762;29;20050;-61
2022/11/07 04:53:42;;;;;;;32.50;16.73;;;;;;;26.85;48.06;99260.50;4797478;29;20566;-60
2022/11/07 04:56:32;;;;;;;29.58;16.52;;;;;;;26.94;48.01;99259.47;4795737;29;20049;-59
2022/11/07 04:59:14;;;;;;;35.65;19.02;;;;;;;27.03;47.66;99262.28;4798466;29;20051;-59
2022/11/07 05:02:10;;;;;;;33.88;18.00;;;;;;;26.73;47.34;99263.75;4800758;29;20474;-59
2022/11/07 05:04:47;;;;;;;45.92;18.13;;;;;;;26.38;47.77;99268.84;4799536;29;20407;-60
2022/11/07 05:07:43;;;;;;;41.60;18.85;;;;;;;26.59;48.58;99269.28;4800498;29;20069;-61
2022/11/07 05:10:27;;;;;;;30.10;16.73;;;;;;;27.21;48.50;99265.19;4799802;29;20521;-61
2022/11/07 05:13:23;;;;;;;37.92;17.70;;;;;;;27.51;48.13;99267.25;4799416;29;20047;-59
2022/11/07 05:15:58;;;;;;;33.65;17.40;;;;;;;27.41;46.93;99263.94;4795864;29;20058;-60
2022/11/07 05:18:47;;;;;;;39.70;20.15;;;;;;;26.92;47.18;99271.88;4774560;29;20148;-60
2022/11/07 05:21:29;;;;;;;44.35;20.10;;;;;;;26.61;47.84;99267.03;4789256;29;20051;-60
2022/11/07 05:24:18;;;;;;;32.60;17.15;;;;;;;26.66;48.77;99269.69;4798183;29;20138;-61
2022/11/07 05:27:21;;;;;;;54.05;18.77;;;;;;;27.05;48.17;99261.97;4800568;29;20530;-61
2022/11/07 05:30:10;;;;;;;32.80;16.35;;;;;;;26.56;47.50;99256.13;4799931;29;20054;-61
2022/11/07 05:33:00;;;;;;;34.90;17.27;;;;;;;26.80;47.79;99255.09;4807343;29;20053;-61
2022/11/07 05:35:42;;;;;;;38.95;17.02;;;;;;;26.50;46.82;99254.56;4811285;29;20141;-63
2022/11/07 05:38:31;;;;;;;31.42;16.60;;;;;;;26.40;47.91;99243.78;4798731;29;20062;-62
2022/11/07 05:41:39;;;;;;;33.30;15.20;;;;;;;26.44;46.48;99242.03;4801875;29;20131;-65
2022/11/07 05:44:41;;;;;;;39.13;16.35;;;;;;;26.62;47.34;99245.81;4799775;29;20495;-63
2022/11/07 05:47:31;;;;;;;51.55;26.58;;;;;;;27.00;46.68;99245.56;4799268;29;20054;-64
2022/11/07 05:50:20;;;;;;;32.00;16.35;;;;;;;27.02;45.84;99232.28;4788935;29;20050;-71
2022/11/07 05:53:03;;;;;;;57.28;26.63;;;;;;;27.59;46.84;99234.53;4798809;29;20055;-65
2022/11/07 05:55:54;;;;;;;35.63;19.98;;;;;;;27.29;48.04;99229.47;4797944;29;20059;-68
2022/11/07 05:58:53;;;;;;;39.58;18.73;;;;;;;26.89;46.64;99228.47;4785898;29;20046;-66
2022/11/07 06:01:28;;;;;;;31.92;13.32;;;;;;;26.89;46.45;99229.25;4778870;29;20439;-66
2022/11/07 06:04:23;;;;;;;32.15;14.70;;;;;;;27.03;46.41;99223.72;4799704;29;20066;-65
2022/11/07 06:06:59;;;;;;;35.60;17.17;;;;;;;27.69;45.99;99217.75;4800327;29;20733;-66
2022/11/07 06:09:55;;;;;;;39.53;17.20;;;;;;;27.57;48.34;99214.75;4798153;29;20161;-65
2022/11/07 06:12:31;;;;;;;34.42;14.05;;;;;;;27.24;46.01;99217.72;4800056;29;20062;-67
2022/11/07 06:15:27;;;;;;;32.05;14.07;;;;;;;27.56;46.30;99213.13;4798335;29;20081;-66
2022/11/07 06:18:04;;;;;;;34.25;14.13;;;;;;;27.65;46.27;99206.53;4801101;29;20119;-67
2022/11/07 06:20:53;;;;;;;32.83;15.48;;;;;;;27.42;46.55;99203.00;4799558;29;20058;-64
2022/11/07 06:23:36;;;;;;;29.75;14.00;;;;;;;27.52;45.04;99199.97;4799921;29;20182;-64
2022/11/07 06:26:25;;;;;;;27.88;13.52;;;;;;;27.94;45.77;99202.50;4793391;29;20063;-65
2022/11/07 06:29:09;;;;;;;31.42;13.60;;;;;;;27.69;45.06;99190.97;4786336;29;20054;-66
2022/11/07 06:31:58;;;;;;;33.25;13.98;;;;;;;27.89;45.46;99195.16;4778076;30;20530;-66
2022/11/07 06:34:41;;;;;;;27.88;13.30;;;;;;;27.43;45.67;99190.00;4782774;29;20071;-66
2022/11/07 06:37:30;;;;;;;23.83;13.70;;;;;;;27.57;46.63;99184.41;4781530;29;20065;-65
2022/11/07 06:40:13;;;;;;;29.33;12.82;;;;;;;28.23;45.58;99176.31;4782059;30;20051;-66
2022/11/07 06:43:10;;;;;;;30.60;13.45;;;;;;;27.78;45.93;99179.97;4783272;30;20071;-67
2022/11/07 06:45:53;;;;;;;23.75;13.05;;;;;;;28.15;46.65;99174.34;4782096;30;20070;-66
2022/11/07 06:48:42;;;;;;;21.20;13.25;;;;;;;28.40;46.29;99173.59;4782555;30;20175;-67
2022/11/07 06:51:27;;;;;;;31.25;14.30;;;;;;;27.63;44.45;99166.59;4781201;30;20069;-67
2022/11/07 06:54:22;;;;;;;33.00;13.77;;;;;;;27.87;46.13;99157.97;4776509;30;20142;-67
2022/11/07 06:56:58;;;;;;;26.58;13.80;;;;;;;27.80;45.37;99158.44;4783125;30;20058;-66
2022/11/07 06:59:48;;;;;;;30.63;14.45;;;;;;;27.71;46.46;99150.13;4781887;30;20150;-68
2022/11/07 07:02:37;;;;;;;25.48;14.55;;;;;;;28.16;47.77;99149.16;4781627;30;20050;-66
2022/11/07 07:05:38;;;;;;;36.42;14.45;;;;;;;28.49;45.62;99146.00;4765499;30;20426;-65
2022/11/07 07:08:27;;;;;;;32.25;15.30;;;;;;;28.64;46.58;99142.81;4780989;30;20063;-65
2022/11/07 07:11:17;;;;;;;26.90;14.25;;;;;;;28.39;44.72;99146.31;4763431;30;20058;-65
2022/11/07 07:14:02;;;;;;;34.03;15.55;;;;;;;28.27;43.17;99133.94;4774340;30;20063;-63
2022/11/07 07:16:57;;;;;;;35.27;14.80;;;;;;;28.08;45.62;99134.22;4781730;30;20063;-64
2022/11/07 07:19:40;;;;;;;28.33;16.88;;;;;;;27.74;44.08;99129.34;4781220;29;20311;-64
2022/11/07 07:22:35;;;;;;;39.03;17.30;;;;;;;28.26;44.67;99126.81;4781101;30;20051;-65
2022/11/07 07:25:10;;;;;;;28.33;15.70;;;;;;;27.98;45.55;99117.16;4781389;29;20146;-64
2022/11/07 07:28:05;;;;;;;36.00;17.08;;;;;;;28.12;44.11;99115.06;4765041;30;20055;-65
2022/11/07 07:31:08;;;;;;;30.75;17.42;;;;;;;28.20;44.16;99117.03;4780953;30;20051;-64
2022/11/07 07:33:57;;;;;;;34.83;17.52;;;;;;;28.36;43.05;99108.31;4780990;30;20059;-65
2022/11/07 07:36:40;;;;;;;38.47;16.88;;;;;;;28.26;43.53;99099.22;4781649;29;20055;-64
2022/11/07 07:39:30;;;;;;;37.78;16.45;;;;;;;28.72;44.71;99088.72;4781225;29;20162;-64
2022/11/07 07:42:12;;;;;;;34.25;17.20;;;;;;;28.18;42.91;99096.41;4763232;30;20064;-64
2022/11/07 07:45:01;;;;;;;31.70;17.52;;;;;;;28.27;45.32;99075.19;4741595;30;20055;-64
2022/11/07 07:47:43;;;;;;;34.70;17.63;;;;;;;28.60;44.69;99070.00;4780942;29;20481;-64
2022/11/07 07:50:32;;;;;;;32.95;17.05;;;;;;;28.76;43.62;99066.75;4777194;30;20104;-64
2022/11/07 07:53:14;;;;;;;46.58;19.75;;;;;;;28.69;43.68;99064.50;4779482;29;20055;-63
2022/11/07 07:56:06;;;;;;;28.15;18.10;;;;;;;28.64;44.16;99059.97;4779988;30;20062;-62
2022/11/07 07:58:48;;;;;;;35.47;18.98;;;;;;;28.49;43.80;99052.13;4764084;30;20066;-64
2022/11/07 08:01:37;;;;;;;31.95;18.02;;;;;;;28.94;43.87;99049.03;4780522;29;20062;-65
2022/11/07 08:04:20;;;;;;;36.70;17.70;;;;;;;28.97;42.94;99056.66;4780819;29;20053;-64
2022/11/07 08:07:09;;;;;;;31.33;16.77;;;;;;;28.97;44.60;99045.63;4780222;30;20590;-63
2022/11/07 08:09:51;;;;;;;44.13;20.00;;;;;;;28.99;42.78;99040.56;4780765;30;20054;-65
2022/11/07 08:13:00;;;;;;;35.40;19.15;;;;;;;28.80;44.69;99034.59;4780113;29;20051;-65
2022/11/07 08:15:42;;;;;;;33.13;18.48;;;;;;;28.65;44.27;99027.63;4774996;30;20047;-65
2022/11/07 08:18:31;;;;;;;36.95;19.30;;;;;;;28.77;43.96;99018.66;4762803;30;20517;-65
2022/11/07 08:21:13;;;;;;;27.92;17.77;;;;;;;28.84;43.43;99019.78;4775798;29;20065;-65
2022/11/07 08:24:02;;;;;;;32.90;18.42;;;;;;;28.86;42.91;99019.47;4764618;30;20051;-67
2022/11/07 08:26:45;;;;;;;37.38;18.02;;;;;;;28.56;43.13;99024.84;4767240;30;20063;-66
2022/11/07 08:29:40;;;;;;;35.30;19.02;;;;;;;28.35;42.41;99012.81;4778278;30;20063;-65
2022/11/07 08:32:29;;;;;;;28.50;17.90;;;;;;;28.65;43.90;99017.38;4779125;29;20043;-65
2022/11/07 08:35:18;;;;;;;33.95;18.67;;;;;;;28.79;43.83;99005.34;4764324;30;20491;-65
2022/11/07 08:38:00;;;;;;;30.27;16.95;;;;;;;28.82;41.94;99011.03;4781109;30;20128;-66
2022/11/07 08:40:50;;;;;;;31.90;17.08;;;;;;;28.84;42.42;99007.94;4780345;30;20055;-63
2022/11/07 08:43:32;;;;;;;23.60;15.73;;;;;;;29.02;41.33;98998.44;4780837;29;20063;-65
2022/11/07 08:46:21;;;;;;;27.98;16.85;;;;;;;29.35;42.44;99000.66;4779016;30;20108;-66
2022/11/07 08:49:03;;;;;;;27.27;15.93;;;;;;;29.27;42.21;98994.03;4780801;29;20377;-65
2022/11/07 08:51:45;;;;;;;30.80;17.40;;;;;;;29.14;42.13;98988.69;4764000;29;20728;-65
2022/11/07 08:54:36;;;;;;;34.13;16.33;;;;;;;28.85;42.92;98992.97;4769160;30;20059;-66
2022/11/07 08:57:18;;;;;;;27.98;15.27;;;;;;;28.81;42.48;98986.50;4780379;30;20066;-64
2022/11/07 09:00:08;;;;;;;28.52;14.88;;;;;;;28.88;41.76;98978.50;4780327;30;20052;-65
2022/11/07 09:02:50;;;;;;;26.33;15.02;;;;;;;28.84;42.17;98981.13;4764782;30;20070;-65
2022/11/07 09:05:59;;;;;;;24.38;14.55;;;;;;;29.00;41.35;98975.84;4779730;30;20498;-65
2022/11/07 09:08:41;;;;;;;32.30;14.43;;;;;;;29.09;40.71;98965.59;4780174;30;20534;-65
2022/11/07 09:11:31;;;;;;;29.73;15.55;;;;;;;28.98;41.70;98963.53;4777780;30;20055;-65
2022/11/07 09:14:23;;;;;;;32.20;15.52;;;;;;;29.16;41.21;98967.06;4779217;30;20177;-65
2022/11/07 09:17:05;;;;;;;24.90;15.18;;;;;;;28.93;40.86;98966.47;4779619;30;20083;-66
2022/11/07 09:19:54;;;;;;;36.47;16.27;;;;;;;28.95;41.48;98969.69;4780256;30;20071;-66
2022/11/07 09:22:43;;;;;;;28.55;16.33;;;;;;;28.94;41.05;98968.91;4779382;29;20078;-65
2022/11/07 09:25:26;;;;;;;32.17;17.80;;;;;;;29.02;40.56;98965.28;4779794;29;20150;-65
2022/11/07 09:28:22;;;;;;;34.42;15.55;;;;;;;28.79;40.21;98966.66;4779171;30;20528;-65
2022/11/07 09:31:11;;;;;;;28.58;13.93;;;;;;;28.50;40.76;98960.69;4779362;30;20055;-65
2022/11/07 09:34:00;;;;;;;28.95;15.77;;;;;;;28.60;41.26;98965.06;4778541;30;20064;-65
2022/11/07 09:36:49;;;;;;;28.88;14.18;;;;;;;28.84;40.55;98960.97;4779188;30;20047;-65
2022/11/07 09:39:32;;;;;;;28.52;15.05;;;;;;;28.59;41.52;98952.44;4777205;30;20106;-65
2022/11/07 09:42:39;;;;;;;;;;;;;;;28.52;42.35;98960.38;4778672;29;20055;-65
2022/11/07 09:45:21;;;;;;;35.45;16.25;;;;;;;28.49;41.96;98958.28;4781381;29;20010;-65
2022/11/07 09:48:17;;;;;;;33.95;15.95;;;;;;;28.30;42.92;98956.66;4781799;30;20131;-66
2022/11/07 09:51:24;;;;;;;33.65;14.30;;;;;;;28.31;40.46;98961.03;4782207;30;20087;-64
2022/11/07 09:54:11;;;;;;;28.77;14.55;;;;;;;28.31;41.26;98961.03;4783791;29;20051;-65
2022/11/07 09:57:03;;;;;;;29.90;13.32;;;;;;;28.50;41.78;98962.63;4780749;30;20054;-66
2022/11/07 09:59:53;;;;;;;27.30;14.35;;;;;;;28.42;40.72;98963.47;4782496;30;20058;-65
2022/11/07 10:02:52;;;;;;;24.58;14.40;;;;;;;28.48;40.68;98960.19;4781233;30;20082;-65
2022/11/07 10:05:47;;;;;;;28.10;13.27;;;;;;;28.55;41.59;98973.56;4780480;30;20063;-64
2022/11/07 10:09:03;;;;;;;26.98;16.42;;;;;;;28.60;42.14;98967.03;4779380;30;20063;-65
2022/11/07 10:12:05;;;;;;;50.95;16.92;;;;;;;28.21;42.66;98972.41;4759744;30;20051;-64
2022/11/07 10:14:43;;;;;;;28.35;16.02;;;;;;;28.40;41.99;98963.78;4781248;30;20099;-67
2022/11/07 10:18:15;;;;;;;41.13;16.08;;;;;;;28.40;43.54;98960.22;4777473;30;20055;-66
2022/11/07 10:21:15;;;;;;;29.17;15.93;;;;;;;28.58;41.55;98964.59;4781156;30;20684;-64
2022/11/07 10:24:43;;;;;;;30.55;14.80;;;;;;;28.28;43.67;98953.41;4780293;30;20112;-64
2022/11/07 10:27:27;;;;;;;30.27;14.95;;;;;;;28.29;44.22;98966.06;4777552;29;20134;-65
2022/11/07 10:30:33;;;;;;;30.85;15.27;;;;;;;28.31;42.34;98962.97;4776344;30;20055;-65
2022/11/07 10:33:20;;;;;;;39.47;15.63;;;;;;;27.95;41.57;98968.81;4780650;30;20039;-65
2022/11/07 10:36:26;;;;;;;39.97;17.67;;;;;;;27.79;42.28;98965.69;4781066;30;20142;-66
2022/11/07 10:39:24;;;;;;;28.38;16.60;;;;;;;27.91;44.61;98960.38;4778949;30;20047;-65
2022/11/07 10:42:25;;;;;;;26.17;16.50;;;;;;;28.40;43.63;98963.00;4780569;30;20054;-66
2022/11/07 10:45:03;;;;;;;46.13;21.48;;;;;;;27.99;42.63;98967.03;4780302;30;20069;-65
2022/11/07 10:48:10;;;;;;;32.15;16.05;;;;;;;28.28;43.87;98958.13;4777366;30;20096;-65
2022/11/07 10:50:53;;;;;;;38.45;22.08;;;;;;;28.01;43.63;98956.50;4780553;30;20192;-66
2022/11/07 10:53:44;;;;;;;44.20;21.88;;;;;;;27.95;44.72;98955.84;4779540;30;20070;-65
2022/11/07 10:56:26;;;;;;;37.53;17.90;;;;;;;28.01;46.07;98953.72;4780482;30;20112;-66
2022/11/07 10:59:24;;;;;;;51.88;27.83;;;;;;;27.95;46.83;98958.59;4777921;30;20119;-66
2022/11/07 11:02:53;;;;;;;52.08;27.80;;;;;;;28.15;46.74;98959.13;4780800;30;20380;-66
2022/11/07 11:05:45;;;;;;;61.92;31.85;;;;;;;27.92;48.50;98957.31;4767748;30;20479;-64
2022/11/07 11:08:32;;;;;;;54.25;30.25;;;;;;;27.69;48.52;98958.56;4779531;30;20066;-67
2022/11/07 11:11:34;;;;;;;66.15;34.22;;;;;;;27.83;48.57;98964.72;4779155;30;20051;-64
2022/11/07 11:14:27;;;;;;;59.35;31.65;;;;;;;27.81;48.50;98955.16;4775350;30;20590;-67
2022/11/07 11:17:25;;;;;;;66.05;33.42;;;;;;;27.65;49.55;98957.53;4779800;30;20066;-66
2022/11/07 11:20:33;;;;;;;;;;;;;;;27.51;49.10;98952.97;4775757;30;20504;-64
2022/11/07 11:23:26;;;;;;;55.90;32.33;;;;;;;27.59;50.26;98961.59;4779977;30;19933;-65
2022/11/07 11:26:42;;;;;;;87.03;40.05;;;;;;;27.06;52.21;98963.34;4778286;30;20510;-65
2022/11/07 11:29:55;;;;;;;83.57;46.50;;;;;;;27.14;53.16;98968.06;4775497;30;20047;-66
2022/11/07 11:33:07;;;;;;;96.30;51.75;;;;;;;27.26;54.01;98970.25;4779525;30;20136;-65
2022/11/07 11:35:51;;;;;;;94.18;51.83;;;;;;;27.06;53.88;98966.09;4778288;29;20070;-66
2022/11/07 11:38:44;;;;;;;77.50;38.88;;;;;;;27.27;52.12;98971.91;4773581;29;20052;-66
2022/11/07 11:42:08;;;;;;;102.88;54.33;;;;;;;26.76;56.35;98966.59;4779511;30;20104;-67
2022/11/07 11:45:02;;;;;;;66.80;38.53;;;;;;;27.33;52.51;98970.63;4738673;30;20059;-65
2022/11/07 11:48:04;;;;;;;73.03;42.35;;;;;;;27.25;53.97;98966.69;4780852;30;20055;-66
2022/11/07 11:51:01;;;;;;;96.00;50.03;;;;;;;27.26;53.50;98962.78;4780804;29;20055;-66
2022/11/07 11:53:43;;;;;;;89.50;46.13;;;;;;;27.39;53.27;98971.28;4782862;29;20066;-67
2022/11/07 11:56:43;;;;;;;87.13;46.67;;;;;;;27.38;53.47;98970.47;4773637;30;20063;-69
2022/11/07 11:59:44;;;;;;;112.28;59.35;;;;;;;26.95;55.66;98968.31;4776278;30;20059;-66
2022/11/07 12:02:52;;;;;;;110.47;59.65;;;;;;;27.03;55.25;98967.53;4777029;30;20051;-68
2022/11/07 12:06:14;;;;;;;111.90;61.75;;;;;;;26.81;56.56;98979.44;4778494;29;20055;-67
2022/11/07 12:09:10;;;;;;;91.43;52.08;;;;;;;26.81;56.07;98975.84;4778895;30;20172;-64
2022/11/07 12:12:11;;;;;;;;;;;;;;;26.70;56.36;98972.56;4758135;30;20059;-63
2022/11/07 12:15:22;;;;;;;89.03;51.00;;;;;;;26.89;55.88;98980.59;4778183;30;19936;-65
2022/11/07 12:19:06;;;;;;;99.68;53.28;;;;;;;26.93;55.66;98982.41;4743449;29;20146;-62
2022/11/07 12:22:10;;;;;;;92.25;50.92;;;;;;;26.94;55.76;98983.19;4719490;30;20055;-64
2022/11/07 12:25:34;;;;;;;94.38;53.95;;;;;;;26.72;56.22;98968.34;4737887;30;20055;-63
2022/11/07 12:28:37;;;;;;;82.28;47.53;;;;;;;26.89;55.79;98975.09;4767425;29;20142;-61
2022/11/07 12:31:38;;;;;;;87.38;47.97;;;;;;;26.87;54.46;98980.09;4776565;30;20058;-62
2022/11/07 12:34:42;;;;;;;85.90;48.15;;;;;;;26.38;55.97;98980.72;4776185;30;20401;-63
2022/11/07 12:38:10;;;;;;;86.55;46.10;;;;;;;26.55;56.09;98981.97;4776038;30;20476;-62
2022/11/07 12:41:12;;;;;;;95.00;47.97;;;;;;;26.23;57.01;98980.28;4748388;30;20082;-63
2022/11/07 12:44:19;;;;;;;78.70;45.47;;;;;;;26.33;56.92;98991.84;4777209;30;20051;-65
2022/11/07 12:47:42;;;;;;;87.68;45.50;;;;;;;26.17;55.19;98988.63;4778136;30;20059;-63
2022/11/07 12:50:49;;;;;;;84.32;46.30;;;;;;;25.94;57.48;98982.28;4745421;29;20054;-62
2022/11/07 12:54:00;;;;;;;85.72;44.10;;;;;;;25.62;55.67;98988.72;4775234;29;20124;-63
2022/11/07 12:56:57;;;;;;;85.07;44.50;;;;;;;25.66;58.36;98989.75;4777023;30;20533;-64
2022/11/07 12:59:50;;;;;;;83.85;42.58;;;;;;;25.80;58.90;99000.72;4778181;30;20284;-66
2022/11/07 13:02:41;;;;;;;84.80;42.38;;;;;;;25.49;55.76;99000.53;4776009;30;20047;-68
2022/11/07 13:06:01;;;;;;;75.28;41.25;;;;;;;25.75;55.39;99000.81;4445338;29;9999935;-65
2022/11/07 13:09:26;;;;;;;87.47;44.53;;;;;;;25.53;56.66;99002.38;4775317;30;20511;-62
2022/11/07 13:12:40;;;;;;;81.05;43.65;;;;;;;25.47;56.78;99009.09;4759239;30;20142;-64
2022/11/07 13:15:30;;;;;;;80.47;44.20;;;;;;;25.41;55.16;99013.06;4744610;30;20055;-65
2022/11/07 13:18:39;;;;;;;92.55;44.97;;;;;;;25.38;55.07;99016.44;4779486;29;20058;-63
2022/11/07 13:21:26;;;;;;;70.80;39.40;;;;;;;25.69;56.89;99022.13;4779057;30;20105;-64
2022/11/07 13:24:28;;;;;;;67.82;40.80;;;;;;;25.47;53.93;99025.59;4780972;30;20071;-64